sensor_id;sensor_type;location;lat;lon;timestamp;P1;durP1;ratioP1;P2;durP2;ratioP2
64710;SDS011;51139;45.626;6.850;2023-07-02T00:02:03;10.70;;;0.75;;
64710;SDS011;51139;45.626;6.850;2023-07-02T00:04:28;1.88;;;0.30;;
64710;SDS011;51139;45.626;6.850;2023-07-02T00:06:54;0.40;;;0.25;;
64710;SDS011;51139;45.626;6.850;2023-07-02T00:09:20;6.15;;;0.80;;
64710;SDS011;51139;45.626;6.850;2023-07-02T00:11:45;8.80;;;0.90;;
64710;SDS011;51139;45.626;6.850;2023-07-02T00:14:11;1.52;;;0.63;;
64710;SDS011;51139;45.626;6.850;2023-07-02T00:16:38;4.10;;;0.80;;
64710;SDS011;51139;45.626;6.850;2023-07-02T00:19:06;1.02;;;0.73;;
64710;SDS011;51139;45.626;6.850;2023-07-02T00:21:31;6.25;;;1.00;;
64710;SDS011;51139;45.626;6.850;2023-07-02T00:23:58;13.23;;;1.30;;
64710;SDS011;51139;45.626;6.850;2023-07-02T00:26:25;10.05;;;1.13;;
64710;SDS011;51139;45.626;6.850;2023-07-02T00:28:52;16.42;;;1.50;;
64710;SDS011;51139;45.626;6.850;2023-07-02T00:31:18;1.88;;;1.00;;
64710;SDS011;51139;45.626;6.850;2023-07-02T00:33:44;1.85;;;0.82;;
64710;SDS011;51139;45.626;6.850;2023-07-02T00:36:09;2.40;;;1.10;;
64710;SDS011;51139;45.626;6.850;2023-07-02T00:38:40;3.83;;;1.20;;
64710;SDS011;51139;45.626;6.850;2023-07-02T00:41:07;19.55;;;2.30;;
64710;SDS011;51139;45.626;6.850;2023-07-02T00:43:33;133.10;;;6.78;;
64710;SDS011;51139;45.626;6.850;2023-07-02T00:45:58;2.20;;;1.15;;
64710;SDS011;51139;45.626;6.850;2023-07-02T00:48:24;2.88;;;1.23;;
64710;SDS011;51139;45.626;6.850;2023-07-02T00:50:49;1.75;;;1.17;;
64710;SDS011;51139;45.626;6.850;2023-07-02T00:53:15;6.90;;;1.40;;
64710;SDS011;51139;45.626;6.850;2023-07-02T00:55:40;2.55;;;1.10;;
64710;SDS011;51139;45.626;6.850;2023-07-02T00:58:06;2.25;;;1.20;;
64710;SDS011;51139;45.626;6.850;2023-07-02T01:00:33;1.63;;;1.23;;
64710;SDS011;51139;45.626;6.850;2023-07-02T01:02:58;2.33;;;1.20;;
64710;SDS011;51139;45.626;6.850;2023-07-02T01:05:27;1.60;;;1.25;;
64710;SDS011;51139;45.626;6.850;2023-07-02T01:08:00;1.98;;;1.40;;
64710;SDS011;51139;45.626;6.850;2023-07-02T01:10:27;1.58;;;1.00;;
64710;SDS011;51139;45.626;6.850;2023-07-02T01:12:53;2.38;;;1.50;;
64710;SDS011;51139;45.626;6.850;2023-07-02T01:15:19;1.70;;;1.40;;
64710;SDS011;51139;45.626;6.850;2023-07-02T01:17:46;2.13;;;1.52;;
64710;SDS011;51139;45.626;6.850;2023-07-02T01:20:13;2.10;;;1.60;;
64710;SDS011;51139;45.626;6.850;2023-07-02T01:22:39;9.10;;;2.33;;
64710;SDS011;51139;45.626;6.850;2023-07-02T01:25:05;5.43;;;2.13;;
64710;SDS011;51139;45.626;6.850;2023-07-02T01:27:31;34.80;;;3.88;;
64710;SDS011;51139;45.626;6.850;2023-07-02T01:29:57;53.63;;;4.53;;
64710;SDS011;51139;45.626;6.850;2023-07-02T01:32:22;8.88;;;3.13;;
64710;SDS011;51139;45.626;6.850;2023-07-02T01:34:48;3.58;;;2.65;;
64710;SDS011;51139;45.626;6.850;2023-07-02T01:37:16;3.65;;;2.90;;
64710;SDS011;51139;45.626;6.850;2023-07-02T01:39:42;3.28;;;2.55;;
64710;SDS011;51139;45.626;6.850;2023-07-02T01:42:09;16.50;;;3.40;;
64710;SDS011;51139;45.626;6.850;2023-07-02T01:44:35;181.30;;;11.35;;
64710;SDS011;51139;45.626;6.850;2023-07-02T01:47:01;234.38;;;12.65;;
64710;SDS011;51139;45.626;6.850;2023-07-02T01:49:27;203.05;;;10.27;;
64710;SDS011;51139;45.626;6.850;2023-07-02T01:51:52;218.90;;;11.32;;
64710;SDS011;51139;45.626;6.850;2023-07-02T01:54:19;332.50;;;14.52;;
64710;SDS011;51139;45.626;6.850;2023-07-02T01:56:45;44.47;;;4.38;;
64710;SDS011;51139;45.626;6.850;2023-07-02T01:59:10;136.55;;;7.50;;
64710;SDS011;51139;45.626;6.850;2023-07-02T02:01:36;128.73;;;8.10;;
64710;SDS011;51139;45.626;6.850;2023-07-02T02:04:05;180.82;;;10.00;;
64710;SDS011;51139;45.626;6.850;2023-07-02T02:06:31;325.02;;;14.65;;
64710;SDS011;51139;45.626;6.850;2023-07-02T02:08:56;407.10;;;19.20;;
64710;SDS011;51139;45.626;6.850;2023-07-02T02:11:21;393.48;;;15.20;;
64710;SDS011;51139;45.626;6.850;2023-07-02T02:13:47;390.15;;;18.50;;
64710;SDS011;51139;45.626;6.850;2023-07-02T02:16:13;69.82;;;5.65;;
64710;SDS011;51139;45.626;6.850;2023-07-02T02:18:39;180.55;;;9.98;;
64710;SDS011;51139;45.626;6.850;2023-07-02T02:21:04;217.32;;;12.05;;
64710;SDS011;51139;45.626;6.850;2023-07-02T02:23:29;130.20;;;8.95;;
64710;SDS011;51139;45.626;6.850;2023-07-02T02:25:55;139.68;;;8.32;;
64710;SDS011;51139;45.626;6.850;2023-07-02T02:28:20;3.38;;;2.45;;
64710;SDS011;51139;45.626;6.850;2023-07-02T02:30:46;60.22;;;5.15;;
64710;SDS011;51139;45.626;6.850;2023-07-02T02:33:11;14.95;;;3.20;;
64710;SDS011;51139;45.626;6.850;2023-07-02T02:35:36;3.70;;;2.60;;
64710;SDS011;51139;45.626;6.850;2023-07-02T02:38:02;4.05;;;2.70;;
64710;SDS011;51139;45.626;6.850;2023-07-02T02:40:29;3.50;;;2.70;;
64710;SDS011;51139;45.626;6.850;2023-07-02T02:42:55;2.88;;;2.17;;
64710;SDS011;51139;45.626;6.850;2023-07-02T02:45:20;32.15;;;5.00;;
64710;SDS011;51139;45.626;6.850;2023-07-02T02:47:46;7.78;;;3.67;;
64710;SDS011;51139;45.626;6.850;2023-07-02T02:50:12;69.10;;;6.18;;
64710;SDS011;51139;45.626;6.850;2023-07-02T02:52:38;3.78;;;2.90;;
64710;SDS011;51139;45.626;6.850;2023-07-02T02:55:04;3.75;;;2.80;;
64710;SDS011;51139;45.626;6.850;2023-07-02T02:57:31;4.05;;;2.80;;
64710;SDS011;51139;45.626;6.850;2023-07-02T02:59:57;240.45;;;11.38;;
64710;SDS011;51139;45.626;6.850;2023-07-02T03:02:22;3.10;;;2.50;;
64710;SDS011;51139;45.626;6.850;2023-07-02T03:04:47;4.70;;;3.03;;
64710;SDS011;51139;45.626;6.850;2023-07-02T03:07:14;4.88;;;3.25;;
64710;SDS011;51139;45.626;6.850;2023-07-02T03:09:40;284.85;;;14.02;;
64710;SDS011;51139;45.626;6.850;2023-07-02T03:12:05;391.10;;;18.23;;
64710;SDS011;51139;45.626;6.850;2023-07-02T03:14:31;441.10;;;20.55;;
64710;SDS011;51139;45.626;6.850;2023-07-02T03:16:56;492.40;;;21.08;;
64710;SDS011;51139;45.626;6.850;2023-07-02T03:19:22;48.15;;;5.75;;
64710;SDS011;51139;45.626;6.850;2023-07-02T03:21:47;92.30;;;7.72;;
64710;SDS011;51139;45.626;6.850;2023-07-02T03:24:12;544.65;;;26.00;;
64710;SDS011;51139;45.626;6.850;2023-07-02T03:26:41;443.15;;;22.08;;
64710;SDS011;51139;45.626;6.850;2023-07-02T03:29:07;253.80;;;15.02;;
64710;SDS011;51139;45.626;6.850;2023-07-02T03:31:33;693.80;;;32.42;;
64710;SDS011;51139;45.626;6.850;2023-07-02T03:33:59;758.90;;;34.42;;
64710;SDS011;51139;45.626;6.850;2023-07-02T03:36:27;883.13;;;41.80;;
64710;SDS011;51139;45.626;6.850;2023-07-02T03:38:52;367.95;;;18.08;;
64710;SDS011;51139;45.626;6.850;2023-07-02T03:41:17;258.15;;;15.65;;
64710;SDS011;51139;45.626;6.850;2023-07-02T03:43:42;542.30;;;26.13;;
64710;SDS011;51139;45.626;6.850;2023-07-02T03:46:08;765.88;;;36.88;;
64710;SDS011;51139;45.626;6.850;2023-07-02T03:48:33;489.05;;;24.10;;
64710;SDS011;51139;45.626;6.850;2023-07-02T03:51:00;615.05;;;29.88;;
64710;SDS011;51139;45.626;6.850;2023-07-02T03:53:27;257.73;;;14.35;;
64710;SDS011;51139;45.626;6.850;2023-07-02T03:55:52;29.30;;;5.18;;
64710;SDS011;51139;45.626;6.850;2023-07-02T03:58:18;11.70;;;4.22;;
64710;SDS011;51139;45.626;6.850;2023-07-02T04:00:43;25.55;;;5.50;;
64710;SDS011;51139;45.626;6.850;2023-07-02T04:03:09;449.90;;;22.77;;
64710;SDS011;51139;45.626;6.850;2023-07-02T04:05:34;480.92;;;23.55;;
64710;SDS011;51139;45.626;6.850;2023-07-02T04:07:59;190.65;;;11.80;;
64710;SDS011;51139;45.626;6.850;2023-07-02T04:10:25;343.77;;;18.52;;
64710;SDS011;51139;45.626;6.850;2023-07-02T04:12:50;155.43;;;10.77;;
64710;SDS011;51139;45.626;6.850;2023-07-02T04:15:15;259.70;;;14.02;;
64710;SDS011;51139;45.626;6.850;2023-07-02T04:17:41;111.97;;;8.82;;
64710;SDS011;51139;45.626;6.850;2023-07-02T04:20:06;88.70;;;7.25;;
64710;SDS011;51139;45.626;6.850;2023-07-02T04:22:32;13.32;;;3.90;;
64710;SDS011;51139;45.626;6.850;2023-07-02T04:24:58;6.47;;;3.75;;
64710;SDS011;51139;45.626;6.850;2023-07-02T04:27:24;5.47;;;3.30;;
64710;SDS011;51139;45.626;6.850;2023-07-02T04:29:49;5.07;;;2.90;;
64710;SDS011;51139;45.626;6.850;2023-07-02T04:32:14;5.28;;;2.90;;
64710;SDS011;51139;45.626;6.850;2023-07-02T04:34:40;3.33;;;2.60;;
64710;SDS011;51139;45.626;6.850;2023-07-02T04:37:06;3.35;;;2.67;;
64710;SDS011;51139;45.626;6.850;2023-07-02T04:39:34;4.63;;;3.10;;
64710;SDS011;51139;45.626;6.850;2023-07-02T04:41:59;10.57;;;3.40;;
64710;SDS011;51139;45.626;6.850;2023-07-02T04:44:24;11.25;;;3.83;;
64710;SDS011;51139;45.626;6.850;2023-07-02T04:46:54;3.15;;;2.53;;
64710;SDS011;51139;45.626;6.850;2023-07-02T04:49:26;3.17;;;2.40;;
64710;SDS011;51139;45.626;6.850;2023-07-02T04:51:51;4.32;;;2.40;;
64710;SDS011;51139;45.626;6.850;2023-07-02T04:54:18;3.42;;;2.50;;
64710;SDS011;51139;45.626;6.850;2023-07-02T04:56:47;3.15;;;2.33;;
64710;SDS011;51139;45.626;6.850;2023-07-02T04:59:15;5.15;;;2.70;;
64710;SDS011;51139;45.626;6.850;2023-07-02T05:01:41;3.75;;;2.60;;
64710;SDS011;51139;45.626;6.850;2023-07-02T05:04:08;3.35;;;2.30;;
64710;SDS011;51139;45.626;6.850;2023-07-02T05:06:35;3.60;;;2.65;;
64710;SDS011;51139;45.626;6.850;2023-07-02T05:09:00;3.70;;;2.33;;
64710;SDS011;51139;45.626;6.850;2023-07-02T05:11:25;4.10;;;2.50;;
64710;SDS011;51139;45.626;6.850;2023-07-02T05:13:51;4.90;;;3.00;;
64710;SDS011;51139;45.626;6.850;2023-07-02T05:16:16;4.13;;;3.00;;
64710;SDS011;51139;45.626;6.850;2023-07-02T05:18:41;4.10;;;2.58;;
64710;SDS011;51139;45.626;6.850;2023-07-02T05:21:07;4.05;;;2.60;;
64710;SDS011;51139;45.626;6.850;2023-07-02T05:23:32;4.35;;;2.90;;
64710;SDS011;51139;45.626;6.850;2023-07-02T05:25:58;4.03;;;2.90;;
64710;SDS011;51139;45.626;6.850;2023-07-02T05:28:23;3.53;;;2.60;;
64710;SDS011;51139;45.626;6.850;2023-07-02T05:30:49;4.88;;;3.30;;
64710;SDS011;51139;45.626;6.850;2023-07-02T05:33:15;5.05;;;2.88;;
64710;SDS011;51139;45.626;6.850;2023-07-02T05:35:40;4.88;;;3.25;;
64710;SDS011;51139;45.626;6.850;2023-07-02T05:38:06;4.07;;;3.10;;
64710;SDS011;51139;45.626;6.850;2023-07-02T05:40:31;37.13;;;6.47;;
64710;SDS011;51139;45.626;6.850;2023-07-02T05:42:56;4.03;;;3.08;;
64710;SDS011;51139;45.626;6.850;2023-07-02T05:45:22;5.22;;;3.75;;
64710;SDS011;51139;45.626;6.850;2023-07-02T05:47:48;4.28;;;3.17;;
64710;SDS011;51139;45.626;6.850;2023-07-02T05:50:14;4.72;;;3.35;;
64710;SDS011;51139;45.626;6.850;2023-07-02T05:52:39;4.88;;;3.40;;
64710;SDS011;51139;45.626;6.850;2023-07-02T05:55:05;5.72;;;3.80;;
64710;SDS011;51139;45.626;6.850;2023-07-02T05:57:32;4.22;;;3.22;;
64710;SDS011;51139;45.626;6.850;2023-07-02T05:59:57;5.30;;;4.28;;
64710;SDS011;51139;45.626;6.850;2023-07-02T06:02:23;5.30;;;3.25;;
64710;SDS011;51139;45.626;6.850;2023-07-02T06:04:48;8.25;;;4.20;;
64710;SDS011;51139;45.626;6.850;2023-07-02T06:07:13;11.95;;;4.63;;
64710;SDS011;51139;45.626;6.850;2023-07-02T06:09:39;8.80;;;4.20;;
64710;SDS011;51139;45.626;6.850;2023-07-02T06:12:04;7.00;;;4.65;;
64710;SDS011;51139;45.626;6.850;2023-07-02T06:14:30;5.70;;;4.47;;
64710;SDS011;51139;45.626;6.850;2023-07-02T06:16:55;4.78;;;3.80;;
64710;SDS011;51139;45.626;6.850;2023-07-02T06:19:22;5.40;;;3.90;;
64710;SDS011;51139;45.626;6.850;2023-07-02T06:21:47;5.15;;;3.95;;
64710;SDS011;51139;45.626;6.850;2023-07-02T06:24:13;4.78;;;3.25;;
64710;SDS011;51139;45.626;6.850;2023-07-02T06:26:38;4.65;;;3.20;;
64710;SDS011;51139;45.626;6.850;2023-07-02T06:29:03;4.45;;;3.30;;
64710;SDS011;51139;45.626;6.850;2023-07-02T06:31:29;6.75;;;3.47;;
64710;SDS011;51139;45.626;6.850;2023-07-02T06:33:54;4.55;;;3.17;;
64710;SDS011;51139;45.626;6.850;2023-07-02T06:36:20;5.50;;;3.20;;
64710;SDS011;51139;45.626;6.850;2023-07-02T06:38:45;3.83;;;2.80;;
64710;SDS011;51139;45.626;6.850;2023-07-02T06:41:10;4.55;;;2.90;;
64710;SDS011;51139;45.626;6.850;2023-07-02T06:43:36;4.03;;;2.85;;
64710;SDS011;51139;45.626;6.850;2023-07-02T06:46:01;4.32;;;3.17;;
64710;SDS011;51139;45.626;6.850;2023-07-02T06:48:27;4.20;;;3.20;;
64710;SDS011;51139;45.626;6.850;2023-07-02T06:50:52;4.53;;;2.72;;
64710;SDS011;51139;45.626;6.850;2023-07-02T06:53:17;3.78;;;2.90;;
64710;SDS011;51139;45.626;6.850;2023-07-02T06:55:43;5.85;;;3.60;;
64710;SDS011;51139;45.626;6.850;2023-07-02T06:58:08;4.65;;;3.17;;
64710;SDS011;51139;45.626;6.850;2023-07-02T07:00:34;7.15;;;3.47;;
64710;SDS011;51139;45.626;6.850;2023-07-02T07:03:02;6.22;;;3.88;;
64710;SDS011;51139;45.626;6.850;2023-07-02T07:05:31;5.68;;;4.53;;
64710;SDS011;51139;45.626;6.850;2023-07-02T07:07:56;6.45;;;4.82;;
64710;SDS011;51139;45.626;6.850;2023-07-02T07:10:22;5.82;;;4.65;;
64710;SDS011;51139;45.626;6.850;2023-07-02T07:12:48;6.10;;;4.95;;
64710;SDS011;51139;45.626;6.850;2023-07-02T07:15:13;5.85;;;4.72;;
64710;SDS011;51139;45.626;6.850;2023-07-02T07:17:38;7.30;;;5.47;;
64710;SDS011;51139;45.626;6.850;2023-07-02T07:20:04;5.93;;;4.40;;
64710;SDS011;51139;45.626;6.850;2023-07-02T07:22:30;7.00;;;4.68;;
64710;SDS011;51139;45.626;6.850;2023-07-02T07:24:56;6.68;;;4.40;;
64710;SDS011;51139;45.626;6.850;2023-07-02T07:27:21;5.65;;;4.30;;
64710;SDS011;51139;45.626;6.850;2023-07-02T07:29:47;6.28;;;4.00;;
64710;SDS011;51139;45.626;6.850;2023-07-02T07:32:12;7.05;;;4.88;;
64710;SDS011;51139;45.626;6.850;2023-07-02T07:34:37;5.60;;;4.70;;
64710;SDS011;51139;45.626;6.850;2023-07-02T07:37:03;5.63;;;4.60;;
64710;SDS011;51139;45.626;6.850;2023-07-02T07:39:28;7.20;;;4.68;;
64710;SDS011;51139;45.626;6.850;2023-07-02T07:41:54;6.72;;;4.75;;
64710;SDS011;51139;45.626;6.850;2023-07-02T07:44:19;5.65;;;3.78;;
64710;SDS011;51139;45.626;6.850;2023-07-02T07:46:44;6.47;;;3.90;;
64710;SDS011;51139;45.626;6.850;2023-07-02T07:49:10;4.95;;;3.50;;
64710;SDS011;51139;45.626;6.850;2023-07-02T07:51:35;5.75;;;4.18;;
64710;SDS011;51139;45.626;6.850;2023-07-02T07:54:03;5.57;;;3.80;;
64710;SDS011;51139;45.626;6.850;2023-07-02T07:56:29;5.38;;;3.88;;
64710;SDS011;51139;45.626;6.850;2023-07-02T07:58:54;7.53;;;3.80;;
64710;SDS011;51139;45.626;6.850;2023-07-02T08:01:20;6.63;;;3.63;;
64710;SDS011;51139;45.626;6.850;2023-07-02T08:03:45;5.88;;;4.00;;
64710;SDS011;51139;45.626;6.850;2023-07-02T08:06:11;6.05;;;3.80;;
64710;SDS011;51139;45.626;6.850;2023-07-02T08:08:37;7.13;;;3.75;;
64710;SDS011;51139;45.626;6.850;2023-07-02T08:11:02;6.00;;;3.72;;
64710;SDS011;51139;45.626;6.850;2023-07-02T08:13:27;5.03;;;3.42;;
64710;SDS011;51139;45.626;6.850;2023-07-02T08:15:53;5.18;;;3.72;;
64710;SDS011;51139;45.626;6.850;2023-07-02T08:18:18;5.22;;;3.70;;
64710;SDS011;51139;45.626;6.850;2023-07-02T08:20:44;5.50;;;3.80;;
64710;SDS011;51139;45.626;6.850;2023-07-02T08:23:09;5.65;;;3.20;;
64710;SDS011;51139;45.626;6.850;2023-07-02T08:25:34;7.45;;;3.63;;
64710;SDS011;51139;45.626;6.850;2023-07-02T08:28:00;5.18;;;3.40;;
64710;SDS011;51139;45.626;6.850;2023-07-02T08:30:25;5.05;;;3.35;;
64710;SDS011;51139;45.626;6.850;2023-07-02T08:32:50;7.55;;;4.15;;
64710;SDS011;51139;45.626;6.850;2023-07-02T08:35:19;5.35;;;3.85;;
64710;SDS011;51139;45.626;6.850;2023-07-02T08:37:44;5.05;;;3.60;;
64710;SDS011;51139;45.626;6.850;2023-07-02T08:40:16;4.72;;;3.55;;
64710;SDS011;51139;45.626;6.850;2023-07-02T08:42:43;4.35;;;3.42;;
64710;SDS011;51139;45.626;6.850;2023-07-02T08:45:10;4.70;;;3.67;;
64710;SDS011;51139;45.626;6.850;2023-07-02T08:47:38;7.40;;;4.97;;
64710;SDS011;51139;45.626;6.850;2023-07-02T08:50:03;5.28;;;4.50;;
64710;SDS011;51139;45.626;6.850;2023-07-02T08:52:30;6.30;;;4.45;;
64710;SDS011;51139;45.626;6.850;2023-07-02T08:54:55;4.95;;;3.78;;
64710;SDS011;51139;45.626;6.850;2023-07-02T08:57:20;6.18;;;3.80;;
64710;SDS011;51139;45.626;6.850;2023-07-02T08:59:46;4.30;;;3.05;;
64710;SDS011;51139;45.626;6.850;2023-07-02T09:02:12;3.92;;;2.50;;
64710;SDS011;51139;45.626;6.850;2023-07-02T09:04:38;3.28;;;2.40;;
64710;SDS011;51139;45.626;6.850;2023-07-02T09:07:07;3.95;;;3.00;;
64710;SDS011;51139;45.626;6.850;2023-07-02T09:12:23;4.97;;;3.20;;
64710;SDS011;51139;45.626;6.850;2023-07-02T09:15:00;4.18;;;3.10;;
64710;SDS011;51139;45.626;6.850;2023-07-02T09:17:29;5.03;;;3.50;;
64710;SDS011;51139;45.626;6.850;2023-07-02T09:19:56;5.55;;;3.40;;
64710;SDS011;51139;45.626;6.850;2023-07-02T09:22:25;4.28;;;2.50;;
64710;SDS011;51139;45.626;6.850;2023-07-02T09:24:51;5.15;;;3.30;;
64710;SDS011;51139;45.626;6.850;2023-07-02T09:27:32;4.95;;;3.53;;
64710;SDS011;51139;45.626;6.850;2023-07-02T09:30:06;5.75;;;3.65;;
64710;SDS011;51139;45.626;6.850;2023-07-02T09:32:39;5.65;;;3.88;;
64710;SDS011;51139;45.626;6.850;2023-07-02T09:35:05;6.43;;;3.63;;
64710;SDS011;51139;45.626;6.850;2023-07-02T09:37:31;5.20;;;3.58;;
64710;SDS011;51139;45.626;6.850;2023-07-02T09:39:57;4.40;;;3.42;;
64710;SDS011;51139;45.626;6.850;2023-07-02T09:42:24;7.57;;;3.95;;
64710;SDS011;51139;45.626;6.850;2023-07-02T09:44:56;5.10;;;3.00;;
64710;SDS011;51139;45.626;6.850;2023-07-02T09:47:23;5.18;;;3.33;;
64710;SDS011;51139;45.626;6.850;2023-07-02T09:50:02;4.70;;;2.80;;
64710;SDS011;51139;45.626;6.850;2023-07-02T09:52:30;5.20;;;3.28;;
64710;SDS011;51139;45.626;6.850;2023-07-02T09:54:57;4.25;;;3.38;;
64710;SDS011;51139;45.626;6.850;2023-07-02T09:57:22;5.82;;;3.25;;
64710;SDS011;51139;45.626;6.850;2023-07-02T09:59:48;5.07;;;3.58;;
64710;SDS011;51139;45.626;6.850;2023-07-02T10:02:13;5.60;;;3.42;;
64710;SDS011;51139;45.626;6.850;2023-07-02T10:04:39;3.90;;;2.80;;
64710;SDS011;51139;45.626;6.850;2023-07-02T10:07:09;5.33;;;3.23;;
64710;SDS011;51139;45.626;6.850;2023-07-02T10:12:14;3.45;;;2.80;;
64710;SDS011;51139;45.626;6.850;2023-07-02T10:14:47;3.15;;;2.25;;
64710;SDS011;51139;45.626;6.850;2023-07-02T10:20:05;2.92;;;2.10;;
64710;SDS011;51139;45.626;6.850;2023-07-02T10:22:45;3.58;;;2.50;;
64710;SDS011;51139;45.626;6.850;2023-07-02T10:25:12;4.33;;;2.23;;
64710;SDS011;51139;45.626;6.850;2023-07-02T10:27:55;3.45;;;1.92;;
64710;SDS011;51139;45.626;6.850;2023-07-02T10:30:31;2.58;;;1.90;;
64710;SDS011;51139;45.626;6.850;2023-07-02T10:35:34;3.55;;;2.10;;
64710;SDS011;51139;45.626;6.850;2023-07-02T10:37:59;2.35;;;1.90;;
64710;SDS011;51139;45.626;6.850;2023-07-02T10:40:25;2.47;;;1.70;;
64710;SDS011;51139;45.626;6.850;2023-07-02T10:42:51;2.42;;;1.83;;
64710;SDS011;51139;45.626;6.850;2023-07-02T10:45:18;2.35;;;1.35;;
64710;SDS011;51139;45.626;6.850;2023-07-02T10:47:44;2.03;;;1.30;;
64710;SDS011;51139;45.626;6.850;2023-07-02T10:50:17;2.58;;;1.65;;
64710;SDS011;51139;45.626;6.850;2023-07-02T10:52:44;1.92;;;1.30;;
64710;SDS011;51139;45.626;6.850;2023-07-02T10:55:09;2.28;;;1.00;;
64710;SDS011;51139;45.626;6.850;2023-07-02T10:57:35;1.33;;;1.10;;
64710;SDS011;51139;45.626;6.850;2023-07-02T11:00:07;1.80;;;1.08;;
64710;SDS011;51139;45.626;6.850;2023-07-02T11:02:39;2.72;;;1.30;;
64710;SDS011;51139;45.626;6.850;2023-07-02T11:05:05;1.50;;;1.20;;
64710;SDS011;51139;45.626;6.850;2023-07-02T11:07:32;2.28;;;1.20;;
64710;SDS011;51139;45.626;6.850;2023-07-02T11:09:58;1.42;;;1.20;;
64710;SDS011;51139;45.626;6.850;2023-07-02T11:12:30;1.83;;;1.27;;
64710;SDS011;51139;45.626;6.850;2023-07-02T11:15:15;1.90;;;1.60;;
64710;SDS011;51139;45.626;6.850;2023-07-02T11:17:45;3.63;;;1.55;;
64710;SDS011;51139;45.626;6.850;2023-07-02T11:20:11;2.15;;;1.42;;
64710;SDS011;51139;45.626;6.850;2023-07-02T11:22:39;2.97;;;1.75;;
64710;SDS011;51139;45.626;6.850;2023-07-02T11:27:37;4.00;;;1.70;;
64710;SDS011;51139;45.626;6.850;2023-07-02T11:30:03;2.30;;;1.40;;
64710;SDS011;51139;45.626;6.850;2023-07-02T11:32:29;2.45;;;1.50;;
64710;SDS011;51139;45.626;6.850;2023-07-02T11:34:54;2.38;;;1.30;;
64710;SDS011;51139;45.626;6.850;2023-07-02T11:37:20;2.22;;;1.40;;
64710;SDS011;51139;45.626;6.850;2023-07-02T11:39:45;2.70;;;1.50;;
64710;SDS011;51139;45.626;6.850;2023-07-02T11:42:11;2.95;;;1.85;;
64710;SDS011;51139;45.626;6.850;2023-07-02T11:44:36;3.60;;;1.70;;
64710;SDS011;51139;45.626;6.850;2023-07-02T11:47:02;2.58;;;1.80;;
64710;SDS011;51139;45.626;6.850;2023-07-02T11:49:28;3.20;;;1.85;;
64710;SDS011;51139;45.626;6.850;2023-07-02T11:51:53;3.35;;;2.28;;
64710;SDS011;51139;45.626;6.850;2023-07-02T11:54:18;5.22;;;2.20;;
64710;SDS011;51139;45.626;6.850;2023-07-02T11:56:44;3.00;;;1.88;;
64710;SDS011;51139;45.626;6.850;2023-07-02T11:59:09;2.78;;;1.90;;
64710;SDS011;51139;45.626;6.850;2023-07-02T12:01:35;2.50;;;1.98;;
64710;SDS011;51139;45.626;6.850;2023-07-02T12:04:01;4.32;;;1.83;;
64710;SDS011;51139;45.626;6.850;2023-07-02T12:06:26;4.05;;;2.08;;
64710;SDS011;51139;45.626;6.850;2023-07-02T12:08:52;3.22;;;2.30;;
64710;SDS011;51139;45.626;6.850;2023-07-02T12:11:17;3.15;;;2.08;;
64710;SDS011;51139;45.626;6.850;2023-07-02T12:13:42;2.67;;;1.90;;
64710;SDS011;51139;45.626;6.850;2023-07-02T12:16:08;3.70;;;2.10;;
64710;SDS011;51139;45.626;6.850;2023-07-02T12:18:33;3.03;;;2.30;;
64710;SDS011;51139;45.626;6.850;2023-07-02T12:20:59;3.22;;;2.08;;
64710;SDS011;51139;45.626;6.850;2023-07-02T12:23:24;3.15;;;1.90;;
64710;SDS011;51139;45.626;6.850;2023-07-02T12:25:49;2.70;;;1.98;;
64710;SDS011;51139;45.626;6.850;2023-07-02T12:28:15;3.33;;;2.10;;
64710;SDS011;51139;45.626;6.850;2023-07-02T12:30:40;2.97;;;2.25;;
64710;SDS011;51139;45.626;6.850;2023-07-02T12:33:06;2.50;;;1.88;;
64710;SDS011;51139;45.626;6.850;2023-07-02T12:35:31;3.05;;;2.08;;
64710;SDS011;51139;45.626;6.850;2023-07-02T12:37:57;3.75;;;2.13;;
64710;SDS011;51139;45.626;6.850;2023-07-02T12:40:22;2.80;;;1.77;;
64710;SDS011;51139;45.626;6.850;2023-07-02T12:42:48;4.13;;;2.05;;
64710;SDS011;51139;45.626;6.850;2023-07-02T12:45:15;2.83;;;1.70;;
64710;SDS011;51139;45.626;6.850;2023-07-02T12:47:41;3.80;;;2.00;;
64710;SDS011;51139;45.626;6.850;2023-07-02T12:50:07;2.88;;;1.90;;
64710;SDS011;51139;45.626;6.850;2023-07-02T12:52:34;3.28;;;2.15;;
64710;SDS011;51139;45.626;6.850;2023-07-02T12:55:00;2.90;;;1.98;;
64710;SDS011;51139;45.626;6.850;2023-07-02T12:57:25;4.32;;;2.20;;
64710;SDS011;51139;45.626;6.850;2023-07-02T12:59:52;4.63;;;2.20;;
64710;SDS011;51139;45.626;6.850;2023-07-02T13:02:21;4.25;;;2.60;;
64710;SDS011;51139;45.626;6.850;2023-07-02T13:04:48;2.95;;;1.90;;
64710;SDS011;51139;45.626;6.850;2023-07-02T13:07:14;2.58;;;1.90;;
64710;SDS011;51139;45.626;6.850;2023-07-02T13:09:39;3.85;;;1.75;;
64710;SDS011;51139;45.626;6.850;2023-07-02T13:12:05;3.92;;;2.33;;
64710;SDS011;51139;45.626;6.850;2023-07-02T13:14:33;3.03;;;1.80;;
64710;SDS011;51139;45.626;6.850;2023-07-02T13:17:00;3.03;;;1.75;;
64710;SDS011;51139;45.626;6.850;2023-07-02T13:19:28;2.63;;;1.92;;
64710;SDS011;51139;45.626;6.850;2023-07-02T13:21:53;2.92;;;2.00;;
64710;SDS011;51139;45.626;6.850;2023-07-02T13:24:19;3.35;;;1.95;;
64710;SDS011;51139;45.626;6.850;2023-07-02T13:26:44;4.55;;;2.10;;
64710;SDS011;51139;45.626;6.850;2023-07-02T13:29:10;2.65;;;1.80;;
64710;SDS011;51139;45.626;6.850;2023-07-02T13:31:35;2.67;;;1.98;;
64710;SDS011;51139;45.626;6.850;2023-07-02T13:34:00;3.38;;;2.20;;
64710;SDS011;51139;45.626;6.850;2023-07-02T13:36:26;2.60;;;1.90;;
64710;SDS011;51139;45.626;6.850;2023-07-02T13:38:53;2.28;;;1.70;;
64710;SDS011;51139;45.626;6.850;2023-07-02T13:41:19;2.80;;;1.90;;
64710;SDS011;51139;45.626;6.850;2023-07-02T13:43:44;3.17;;;2.03;;
64710;SDS011;51139;45.626;6.850;2023-07-02T13:46:09;2.88;;;2.08;;
64710;SDS011;51139;45.626;6.850;2023-07-02T13:48:35;3.22;;;1.83;;
64710;SDS011;51139;45.626;6.850;2023-07-02T13:51:00;3.53;;;2.00;;
64710;SDS011;51139;45.626;6.850;2023-07-02T13:53:25;3.10;;;1.90;;
64710;SDS011;51139;45.626;6.850;2023-07-02T13:55:51;2.97;;;1.95;;
64710;SDS011;51139;45.626;6.850;2023-07-02T13:58:16;3.13;;;2.17;;
64710;SDS011;51139;45.626;6.850;2023-07-02T14:00:41;3.25;;;2.20;;
64710;SDS011;51139;45.626;6.850;2023-07-02T14:03:07;5.57;;;2.10;;
64710;SDS011;51139;45.626;6.850;2023-07-02T14:05:32;2.70;;;1.98;;
64710;SDS011;51139;45.626;6.850;2023-07-02T14:07:58;3.17;;;2.10;;
64710;SDS011;51139;45.626;6.850;2023-07-02T14:10:23;4.45;;;2.20;;
64710;SDS011;51139;45.626;6.850;2023-07-02T14:12:48;3.78;;;2.22;;
64710;SDS011;51139;45.626;6.850;2023-07-02T14:15:14;3.78;;;2.28;;
64710;SDS011;51139;45.626;6.850;2023-07-02T14:17:39;3.53;;;2.28;;
64710;SDS011;51139;45.626;6.850;2023-07-02T14:20:06;3.58;;;1.90;;
64710;SDS011;51139;45.626;6.850;2023-07-02T14:22:32;3.35;;;1.92;;
64710;SDS011;51139;45.626;6.850;2023-07-02T14:24:58;3.30;;;2.25;;
64710;SDS011;51139;45.626;6.850;2023-07-02T14:27:23;3.72;;;2.05;;
64710;SDS011;51139;45.626;6.850;2023-07-02T14:29:49;3.67;;;2.25;;
64710;SDS011;51139;45.626;6.850;2023-07-02T14:32:14;3.08;;;2.20;;
64710;SDS011;51139;45.626;6.850;2023-07-02T14:34:40;3.70;;;2.22;;
64710;SDS011;51139;45.626;6.850;2023-07-02T14:37:06;3.47;;;2.17;;
64710;SDS011;51139;45.626;6.850;2023-07-02T14:39:32;3.90;;;2.25;;
64710;SDS011;51139;45.626;6.850;2023-07-02T14:41:57;3.30;;;2.40;;
64710;SDS011;51139;45.626;6.850;2023-07-02T14:44:22;4.75;;;2.55;;
64710;SDS011;51139;45.626;6.850;2023-07-02T14:46:48;5.90;;;2.95;;
64710;SDS011;51139;45.626;6.850;2023-07-02T14:49:14;3.70;;;2.20;;
64710;SDS011;51139;45.626;6.850;2023-07-02T14:51:39;4.07;;;2.60;;